sensor_id;sensor_type;location;lat;lon;timestamp;pressure;altitude;pressure_sealevel;temperature;humidity
65054;BME280;51639;47.828;35.038;2023-02-04T00:06:50;99562.53;;;1.76;100.00
65054;BME280;51639;47.828;35.038;2023-02-04T00:21:52;99548.38;;;1.76;100.00
65054;BME280;51639;47.828;35.038;2023-02-04T00:36:54;99537.34;;;1.81;100.00
65054;BME280;51639;47.828;35.038;2023-02-04T00:51:56;99522.84;;;1.85;100.00
65054;BME280;51639;47.828;35.038;2023-02-04T01:06:58;99506.84;;;1.96;100.00
65054;BME280;51639;47.828;35.038;2023-02-04T01:22:00;99497.34;;;2.09;100.00
65054;BME280;51639;47.828;35.038;2023-02-04T01:37:02;99490.09;;;2.13;100.00
65054;BME280;51639;47.828;35.038;2023-02-04T01:52:04;99490.56;;;2.36;100.00
65054;BME280;51639;47.828;35.038;2023-02-04T02:07:06;99496.22;;;2.10;100.00
65054;BME280;51639;47.828;35.038;2023-02-04T02:22:17;99472.44;;;1.98;100.00
65054;BME280;51639;47.828;35.038;2023-02-04T02:37:21;99449.63;;;2.32;100.00
65054;BME280;51639;47.828;35.038;2023-02-04T02:52:23;99482.66;;;2.79;100.00
65054;BME280;51639;47.828;35.038;2023-02-04T03:07:25;99526.31;;;2.87;100.00
65054;BME280;51639;47.828;35.038;2023-02-04T03:22:27;99546.28;;;3.03;100.00
65054;BME280;51639;47.828;35.038;2023-02-04T03:37:29;99576.91;;;2.95;100.00
65054;BME280;51639;47.828;35.038;2023-02-04T03:52:32;99621.97;;;2.58;100.00
65054;BME280;51639;47.828;35.038;2023-02-04T04:07:34;99640.28;;;2.49;100.00
65054;BME280;51639;47.828;35.038;2023-02-04T04:22:35;99649.31;;;2.26;100.00
65054;BME280;51639;47.828;35.038;2023-02-04T04:37:37;99653.13;;;2.25;100.00
65054;BME280;51639;47.828;35.038;2023-02-04T04:52:40;99675.16;;;2.01;100.00
65054;BME280;51639;47.828;35.038;2023-02-04T05:07:41;99692.69;;;1.95;100.00
65054;BME280;51639;47.828;35.038;2023-02-04T05:22:43;99711.09;;;2.00;100.00
65054;BME280;51639;47.828;35.038;2023-02-04T05:37:45;99734.31;;;2.33;100.00
65054;BME280;51639;47.828;35.038;2023-02-04T05:52:47;99753.19;;;2.51;100.00
65054;BME280;51639;47.828;35.038;2023-02-04T06:07:49;99780.31;;;2.42;100.00
65054;BME280;51639;47.828;35.038;2023-02-04T06:22:51;99793.44;;;2.54;100.00
65054;BME280;51639;47.828;35.038;2023-02-04T06:37:54;99811.97;;;2.77;100.00
65054;BME280;51639;47.828;35.038;2023-02-04T06:52:57;99821.19;;;2.80;100.00
65054;BME280;51639;47.828;35.038;2023-02-04T07:07:59;99851.19;;;2.99;100.00
65054;BME280;51639;47.828;35.038;2023-02-04T07:23:00;99860.84;;;3.11;100.00
65054;BME280;51639;47.828;35.038;2023-02-04T07:38:03;99880.03;;;3.93;100.00
65054;BME280;51639;47.828;35.038;2023-02-04T07:53:07;99905.81;;;4.11;100.00
65054;BME280;51639;47.828;35.038;2023-02-04T08:08:09;99923.25;;;4.92;100.00
65054;BME280;51639;47.828;35.038;2023-02-04T08:23:11;99950.00;;;6.13;100.00
65054;BME280;51639;47.828;35.038;2023-02-04T08:38:13;99954.66;;;7.27;100.00
65054;BME280;51639;47.828;35.038;2023-02-04T08:53:17;99955.53;;;8.56;100.00
65054;BME280;51639;47.828;35.038;2023-02-04T09:08:19;99952.00;;;8.32;100.00
65054;BME280;51639;47.828;35.038;2023-02-04T09:23:21;99959.88;;;7.48;100.00
65054;BME280;51639;47.828;35.038;2023-02-04T09:38:24;99957.34;;;6.75;100.00
65054;BME280;51639;47.828;35.038;2023-02-04T09:53:28;99927.03;;;9.88;100.00
65054;BME280;51639;47.828;35.038;2023-02-04T10:08:32;99939.56;;;10.57;100.00
65054;BME280;51639;47.828;35.038;2023-02-04T10:23:36;99934.50;;;11.08;100.00
65054;BME280;51639;47.828;35.038;2023-02-04T10:38:38;99954.22;;;9.65;100.00
65054;BME280;51639;47.828;35.038;2023-02-04T10:53:41;99969.22;;;8.11;100.00
65054;BME280;51639;47.828;35.038;2023-02-04T11:09:04;99991.13;;;6.97;100.00
65054;BME280;51639;47.828;35.038;2023-02-04T11:39:27;100009.34;;;5.63;100.00
65054;BME280;51639;47.828;35.038;2023-02-04T11:54:30;100029.31;;;5.05;100.00
65054;BME280;51639;47.828;35.038;2023-02-04T12:09:32;100021.22;;;4.84;100.00
65054;BME280;51639;47.828;35.038;2023-02-04T12:24:34;100051.25;;;4.10;100.00
65054;BME280;51639;47.828;35.038;2023-02-04T12:39:36;100047.97;;;3.72;100.00
65054;BME280;51639;47.828;35.038;2023-02-04T12:54:38;100051.81;;;3.78;100.00
65054;BME280;51639;47.828;35.038;2023-02-04T13:09:40;100068.88;;;3.49;100.00
65054;BME280;51639;47.828;35.038;2023-02-04T13:24:42;100079.25;;;3.51;100.00
65054;BME280;51639;47.828;35.038;2023-02-04T13:39:44;100091.34;;;3.34;100.00
65054;BME280;51639;47.828;35.038;2023-02-04T13:54:46;100093.78;;;3.09;100.00
65054;BME280;51639;47.828;35.038;2023-02-04T14:09:48;100090.03;;;2.80;100.00
65054;BME280;51639;47.828;35.038;2023-02-04T14:24:50;100085.41;;;2.77;100.00
65054;BME280;51639;47.828;35.038;2023-02-04T14:39:54;100105.50;;;2.30;100.00
65054;BME280;51639;47.828;35.038;2023-02-04T14:54:57;100123.06;;;2.28;100.00
65054;BME280;51639;47.828;35.038;2023-02-04T15:09:59;100121.97;;;2.06;100.00
65054;BME280;51639;47.828;35.038;2023-02-04T15:25:01;100146.31;;;1.97;100.00
65054;BME280;51639;47.828;35.038;2023-02-04T15:40:04;100162.22;;;2.13;100.00
65054;BME280;51639;47.828;35.038;2023-02-04T15:55:07;100169.03;;;2.07;100.00
65054;BME280;51639;47.828;35.038;2023-02-04T16:10:09;100181.03;;;2.17;100.00
65054;BME280;51639;47.828;35.038;2023-02-04T16:25:11;100193.97;;;2.11;100.00
65054;BME280;51639;47.828;35.038;2023-02-04T16:40:13;100189.50;;;1.96;100.00
65054;BME280;51639;47.828;35.038;2023-02-04T16:55:15;100200.81;;;1.63;100.00
65054;BME280;51639;47.828;35.038;2023-02-04T17:10:17;100212.84;;;1.53;100.00
65054;BME280;51639;47.828;35.038;2023-02-04T17:25:39;100220.38;;;1.48;100.00
65054;BME280;51639;47.828;35.038;2023-02-04T17:40:40;100225.13;;;1.54;100.00
65054;BME280;51639;47.828;35.038;2023-02-04T17:55:43;100215.81;;;1.48;100.00
65054;BME280;51639;47.828;35.038;2023-02-04T18:10:50;100231.41;;;1.65;100.00
65054;BME280;51639;47.828;35.038;2023-02-04T18:25:53;100240.88;;;1.59;100.00
65054;BME280;51639;47.828;35.038;2023-02-04T18:41:01;100244.75;;;1.43;100.00
65054;BME280;51639;47.828;35.038;2023-02-04T18:56:11;100243.16;;;1.38;100.00
65054;BME280;51639;47.828;35.038;2023-02-04T19:26:51;100267.63;;;1.21;100.00
65054;BME280;51639;47.828;35.038;2023-02-04T19:41:55;100273.81;;;1.06;100.00
65054;BME280;51639;47.828;35.038;2023-02-04T19:56:58;100275.97;;;1.00;100.00
65054;BME280;51639;47.828;35.038;2023-02-04T20:12:01;100275.84;;;0.93;100.00
65054;BME280;51639;47.828;35.038;2023-02-04T20:42:33;100273.56;;;0.60;100.00
65054;BME280;51639;47.828;35.038;2023-02-04T20:57:35;100275.97;;;0.33;100.00
65054;BME280;51639;47.828;35.038;2023-02-04T21:12:37;100280.22;;;0.19;100.00
65054;BME280;51639;47.828;35.038;2023-02-04T21:27:43;100273.28;;;0.02;100.00
65054;BME280;51639;47.828;35.038;2023-02-04T21:42:45;100287.81;;;-0.11;100.00
65054;BME280;51639;47.828;35.038;2023-02-04T21:57:48;100283.38;;;-0.07;100.00
65054;BME280;51639;47.828;35.038;2023-02-04T22:12:50;100292.09;;;-0.22;100.00
65054;BME280;51639;47.828;35.038;2023-02-04T22:27:52;100299.16;;;-0.30;100.00
65054;BME280;51639;47.828;35.038;2023-02-04T22:42:57;100293.28;;;-0.36;100.00
65054;BME280;51639;47.828;35.038;2023-02-04T22:58:00;100283.97;;;-0.42;100.00
65054;BME280;51639;47.828;35.038;2023-02-04T23:13:02;100284.84;;;-0.38;100.00
65054;BME280;51639;47.828;35.038;2023-02-04T23:28:04;100291.38;;;-0.35;100.00
65054;BME280;51639;47.828;35.038;2023-02-04T23:43:06;100293.38;;;-0.32;100.00
65054;BME280;51639;47.828;35.038;2023-02-04T23:58:11;100290.06;;;-0.41;100.00
